sensor_id;sensor_type;location;lat;lon;timestamp;P1;durP1;ratioP1;P2;durP2;ratioP2
962;SDS011;469;48.770;9.176;2022-07-17T00:01:00;6.80;;;3.10;;
962;SDS011;469;48.770;9.176;2022-07-17T00:03:27;13.45;;;3.30;;
962;SDS011;469;48.770;9.176;2022-07-17T00:05:54;8.80;;;3.53;;
962;SDS011;469;48.770;9.176;2022-07-17T00:08:22;9.07;;;3.92;;
962;SDS011;469;48.770;9.176;2022-07-17T00:10:48;7.22;;;3.72;;
962;SDS011;469;48.770;9.176;2022-07-17T00:13:15;9.48;;;3.80;;
962;SDS011;469;48.770;9.176;2022-07-17T00:15:42;11.63;;;4.38;;
962;SDS011;469;48.770;9.176;2022-07-17T00:18:09;9.38;;;3.35;;
962;SDS011;469;48.770;9.176;2022-07-17T00:20:35;4.97;;;3.05;;
962;SDS011;469;48.770;9.176;2022-07-17T00:23:02;6.15;;;2.97;;
962;SDS011;469;48.770;9.176;2022-07-17T00:25:30;6.07;;;3.25;;
962;SDS011;469;48.770;9.176;2022-07-17T00:27:58;7.38;;;3.22;;
962;SDS011;469;48.770;9.176;2022-07-17T00:30:26;8.32;;;3.45;;
962;SDS011;469;48.770;9.176;2022-07-17T00:32:53;6.60;;;3.88;;
962;SDS011;469;48.770;9.176;2022-07-17T00:35:20;6.32;;;3.35;;
962;SDS011;469;48.770;9.176;2022-07-17T00:37:48;8.63;;;3.80;;
962;SDS011;469;48.770;9.176;2022-07-17T00:40:17;8.68;;;3.20;;
962;SDS011;469;48.770;9.176;2022-07-17T00:42:46;7.97;;;3.00;;
962;SDS011;469;48.770;9.176;2022-07-17T00:45:14;7.35;;;3.35;;
962;SDS011;469;48.770;9.176;2022-07-17T00:47:48;5.60;;;3.08;;
962;SDS011;469;48.770;9.176;2022-07-17T00:50:16;5.97;;;3.08;;
962;SDS011;469;48.770;9.176;2022-07-17T00:52:43;8.05;;;3.75;;
962;SDS011;469;48.770;9.176;2022-07-17T00:55:10;5.55;;;3.40;;
962;SDS011;469;48.770;9.176;2022-07-17T00:57:39;8.15;;;3.65;;
962;SDS011;469;48.770;9.176;2022-07-17T01:00:08;8.02;;;3.53;;
962;SDS011;469;48.770;9.176;2022-07-17T01:02:36;7.03;;;3.38;;
962;SDS011;469;48.770;9.176;2022-07-17T01:05:04;5.20;;;3.15;;
962;SDS011;469;48.770;9.176;2022-07-17T01:07:32;9.57;;;4.22;;
962;SDS011;469;48.770;9.176;2022-07-17T01:09:59;6.43;;;3.08;;
962;SDS011;469;48.770;9.176;2022-07-17T01:12:26;7.82;;;3.20;;
962;SDS011;469;48.770;9.176;2022-07-17T01:14:53;8.10;;;3.38;;
962;SDS011;469;48.770;9.176;2022-07-17T01:17:24;5.70;;;2.95;;
962;SDS011;469;48.770;9.176;2022-07-17T01:19:51;6.00;;;3.13;;
962;SDS011;469;48.770;9.176;2022-07-17T01:22:19;7.47;;;2.92;;
962;SDS011;469;48.770;9.176;2022-07-17T01:24:46;10.35;;;3.28;;
962;SDS011;469;48.770;9.176;2022-07-17T01:27:13;5.25;;;3.17;;
962;SDS011;469;48.770;9.176;2022-07-17T01:29:39;8.38;;;3.25;;
962;SDS011;469;48.770;9.176;2022-07-17T01:32:06;5.30;;;3.10;;
962;SDS011;469;48.770;9.176;2022-07-17T01:34:33;8.90;;;3.40;;
962;SDS011;469;48.770;9.176;2022-07-17T01:37:00;9.07;;;3.35;;
962;SDS011;469;48.770;9.176;2022-07-17T01:39:28;5.43;;;3.38;;
962;SDS011;469;48.770;9.176;2022-07-17T01:42:12;6.13;;;3.22;;
962;SDS011;469;48.770;9.176;2022-07-17T01:44:39;8.82;;;3.22;;
962;SDS011;469;48.770;9.176;2022-07-17T01:47:05;5.88;;;3.05;;
962;SDS011;469;48.770;9.176;2022-07-17T01:49:32;4.38;;;2.72;;
962;SDS011;469;48.770;9.176;2022-07-17T01:51:59;5.25;;;2.80;;
962;SDS011;469;48.770;9.176;2022-07-17T01:54:28;5.70;;;3.10;;
962;SDS011;469;48.770;9.176;2022-07-17T01:56:55;8.70;;;3.47;;
962;SDS011;469;48.770;9.176;2022-07-17T01:59:21;6.30;;;2.90;;
962;SDS011;469;48.770;9.176;2022-07-17T02:01:49;6.93;;;3.55;;
962;SDS011;469;48.770;9.176;2022-07-17T02:04:16;8.52;;;3.55;;
962;SDS011;469;48.770;9.176;2022-07-17T02:06:42;18.77;;;3.67;;
962;SDS011;469;48.770;9.176;2022-07-17T02:09:09;7.47;;;3.88;;
962;SDS011;469;48.770;9.176;2022-07-17T02:11:37;9.18;;;3.03;;
962;SDS011;469;48.770;9.176;2022-07-17T02:14:04;10.73;;;3.72;;
962;SDS011;469;48.770;9.176;2022-07-17T02:16:31;8.07;;;3.30;;
962;SDS011;469;48.770;9.176;2022-07-17T02:18:57;7.85;;;3.40;;
962;SDS011;469;48.770;9.176;2022-07-17T02:21:24;8.18;;;3.40;;
962;SDS011;469;48.770;9.176;2022-07-17T02:23:51;4.80;;;3.13;;
962;SDS011;469;48.770;9.176;2022-07-17T02:26:17;8.40;;;3.63;;
962;SDS011;469;48.770;9.176;2022-07-17T02:28:45;7.90;;;4.20;;
962;SDS011;469;48.770;9.176;2022-07-17T02:31:12;6.22;;;3.58;;
962;SDS011;469;48.770;9.176;2022-07-17T02:33:39;7.20;;;3.05;;
962;SDS011;469;48.770;9.176;2022-07-17T02:36:06;7.85;;;3.55;;
962;SDS011;469;48.770;9.176;2022-07-17T02:38:33;6.50;;;3.50;;
962;SDS011;469;48.770;9.176;2022-07-17T02:41:00;10.35;;;3.85;;
962;SDS011;469;48.770;9.176;2022-07-17T02:43:26;8.80;;;3.85;;
962;SDS011;469;48.770;9.176;2022-07-17T02:45:55;6.05;;;3.35;;
962;SDS011;469;48.770;9.176;2022-07-17T02:48:21;5.45;;;3.47;;
962;SDS011;469;48.770;9.176;2022-07-17T02:50:48;4.55;;;2.95;;
962;SDS011;469;48.770;9.176;2022-07-17T02:53:15;6.80;;;3.47;;
962;SDS011;469;48.770;9.176;2022-07-17T02:55:41;5.70;;;3.40;;
962;SDS011;469;48.770;9.176;2022-07-17T02:58:08;6.72;;;3.70;;
962;SDS011;469;48.770;9.176;2022-07-17T03:00:35;7.07;;;3.45;;
962;SDS011;469;48.770;9.176;2022-07-17T03:03:03;7.68;;;3.38;;
962;SDS011;469;48.770;9.176;2022-07-17T03:05:30;6.03;;;3.20;;
962;SDS011;469;48.770;9.176;2022-07-17T03:07:56;7.40;;;3.25;;
962;SDS011;469;48.770;9.176;2022-07-17T03:10:23;5.28;;;3.33;;
962;SDS011;469;48.770;9.176;2022-07-17T03:12:50;7.40;;;3.55;;
962;SDS011;469;48.770;9.176;2022-07-17T03:15:17;9.40;;;3.90;;
962;SDS011;469;48.770;9.176;2022-07-17T03:17:44;5.63;;;3.13;;
962;SDS011;469;48.770;9.176;2022-07-17T03:20:20;4.60;;;3.00;;
962;SDS011;469;48.770;9.176;2022-07-17T03:22:50;6.05;;;3.72;;
962;SDS011;469;48.770;9.176;2022-07-17T03:25:17;11.00;;;3.83;;
962;SDS011;469;48.770;9.176;2022-07-17T03:27:44;8.23;;;3.15;;
962;SDS011;469;48.770;9.176;2022-07-17T03:30:14;7.53;;;3.55;;
962;SDS011;469;48.770;9.176;2022-07-17T03:32:41;5.43;;;3.30;;
962;SDS011;469;48.770;9.176;2022-07-17T03:35:08;7.20;;;3.40;;
962;SDS011;469;48.770;9.176;2022-07-17T03:37:36;6.38;;;3.35;;
962;SDS011;469;48.770;9.176;2022-07-17T03:40:04;5.45;;;3.15;;
962;SDS011;469;48.770;9.176;2022-07-17T03:42:32;7.90;;;3.63;;
962;SDS011;469;48.770;9.176;2022-07-17T03:44:58;8.23;;;3.60;;
962;SDS011;469;48.770;9.176;2022-07-17T03:47:25;5.57;;;3.30;;
962;SDS011;469;48.770;9.176;2022-07-17T03:49:52;5.60;;;3.30;;
962;SDS011;469;48.770;9.176;2022-07-17T03:52:19;5.40;;;3.42;;
962;SDS011;469;48.770;9.176;2022-07-17T03:54:47;9.98;;;3.85;;
962;SDS011;469;48.770;9.176;2022-07-17T03:57:14;8.05;;;4.40;;
962;SDS011;469;48.770;9.176;2022-07-17T03:59:40;10.20;;;3.85;;
962;SDS011;469;48.770;9.176;2022-07-17T04:02:10;7.93;;;4.10;;
962;SDS011;469;48.770;9.176;2022-07-17T04:04:37;6.53;;;3.20;;
962;SDS011;469;48.770;9.176;2022-07-17T04:07:03;6.05;;;3.38;;
962;SDS011;469;48.770;9.176;2022-07-17T04:09:30;6.30;;;3.50;;
962;SDS011;469;48.770;9.176;2022-07-17T04:11:58;8.50;;;3.58;;
962;SDS011;469;48.770;9.176;2022-07-17T04:14:25;6.40;;;3.13;;
962;SDS011;469;48.770;9.176;2022-07-17T04:16:52;5.85;;;4.00;;
962;SDS011;469;48.770;9.176;2022-07-17T04:19:19;4.18;;;3.05;;
962;SDS011;469;48.770;9.176;2022-07-17T04:21:45;6.70;;;3.53;;
962;SDS011;469;48.770;9.176;2022-07-17T04:24:12;5.78;;;3.28;;
962;SDS011;469;48.770;9.176;2022-07-17T04:26:39;5.90;;;3.60;;
962;SDS011;469;48.770;9.176;2022-07-17T04:29:07;5.35;;;3.20;;
962;SDS011;469;48.770;9.176;2022-07-17T04:31:34;8.52;;;3.25;;
962;SDS011;469;48.770;9.176;2022-07-17T04:34:00;6.93;;;3.33;;
962;SDS011;469;48.770;9.176;2022-07-17T04:36:27;7.30;;;3.90;;
962;SDS011;469;48.770;9.176;2022-07-17T04:38:54;7.10;;;3.47;;
962;SDS011;469;48.770;9.176;2022-07-17T04:41:21;10.80;;;3.63;;
962;SDS011;469;48.770;9.176;2022-07-17T04:43:47;6.57;;;3.42;;
962;SDS011;469;48.770;9.176;2022-07-17T04:46:16;8.65;;;4.22;;
962;SDS011;469;48.770;9.176;2022-07-17T04:48:45;6.32;;;4.07;;
962;SDS011;469;48.770;9.176;2022-07-17T04:51:12;8.70;;;3.63;;
962;SDS011;469;48.770;9.176;2022-07-17T04:53:39;6.50;;;3.75;;
962;SDS011;469;48.770;9.176;2022-07-17T04:56:05;8.75;;;3.65;;
962;SDS011;469;48.770;9.176;2022-07-17T04:58:32;6.50;;;3.72;;
962;SDS011;469;48.770;9.176;2022-07-17T05:00:59;7.55;;;4.38;;
962;SDS011;469;48.770;9.176;2022-07-17T05:03:27;7.97;;;3.60;;
962;SDS011;469;48.770;9.176;2022-07-17T05:05:54;8.75;;;4.30;;
962;SDS011;469;48.770;9.176;2022-07-17T05:08:20;9.80;;;4.00;;
962;SDS011;469;48.770;9.176;2022-07-17T05:10:47;6.45;;;3.88;;
962;SDS011;469;48.770;9.176;2022-07-17T05:13:14;6.15;;;3.83;;
962;SDS011;469;48.770;9.176;2022-07-17T05:15:41;7.20;;;3.90;;
962;SDS011;469;48.770;9.176;2022-07-17T05:18:07;7.63;;;3.80;;
962;SDS011;469;48.770;9.176;2022-07-17T05:20:36;6.50;;;3.95;;
962;SDS011;469;48.770;9.176;2022-07-17T05:23:03;8.13;;;3.95;;
962;SDS011;469;48.770;9.176;2022-07-17T05:25:29;9.95;;;4.45;;
962;SDS011;469;48.770;9.176;2022-07-17T05:27:56;9.05;;;4.47;;
962;SDS011;469;48.770;9.176;2022-07-17T05:30:23;6.50;;;4.20;;
962;SDS011;469;48.770;9.176;2022-07-17T05:32:50;7.60;;;4.25;;
962;SDS011;469;48.770;9.176;2022-07-17T05:35:17;7.13;;;4.03;;
962;SDS011;469;48.770;9.176;2022-07-17T05:37:45;9.45;;;4.70;;
962;SDS011;469;48.770;9.176;2022-07-17T05:40:12;7.80;;;4.47;;
962;SDS011;469;48.770;9.176;2022-07-17T05:42:39;13.98;;;5.07;;
962;SDS011;469;48.770;9.176;2022-07-17T05:45:06;9.38;;;5.32;;
962;SDS011;469;48.770;9.176;2022-07-17T05:47:33;10.02;;;4.80;;
962;SDS011;469;48.770;9.176;2022-07-17T05:50:00;9.13;;;4.80;;
962;SDS011;469;48.770;9.176;2022-07-17T05:52:26;8.02;;;4.40;;
962;SDS011;469;48.770;9.176;2022-07-17T05:54:54;7.80;;;4.75;;
962;SDS011;469;48.770;9.176;2022-07-17T05:57:21;10.20;;;6.25;;
962;SDS011;469;48.770;9.176;2022-07-17T05:59:48;8.95;;;5.43;;
962;SDS011;469;48.770;9.176;2022-07-17T06:02:15;11.25;;;5.20;;
962;SDS011;469;48.770;9.176;2022-07-17T06:04:41;7.63;;;4.68;;
962;SDS011;469;48.770;9.176;2022-07-17T06:07:08;7.50;;;4.72;;
962;SDS011;469;48.770;9.176;2022-07-17T06:09:35;12.52;;;4.90;;
962;SDS011;469;48.770;9.176;2022-07-17T06:12:03;10.10;;;5.43;;
962;SDS011;469;48.770;9.176;2022-07-17T06:14:30;12.77;;;5.30;;
962;SDS011;469;48.770;9.176;2022-07-17T06:16:57;9.07;;;5.22;;
962;SDS011;469;48.770;9.176;2022-07-17T06:19:23;10.45;;;4.70;;
962;SDS011;469;48.770;9.176;2022-07-17T06:21:50;9.70;;;5.10;;
962;SDS011;469;48.770;9.176;2022-07-17T06:24:17;15.55;;;5.20;;
962;SDS011;469;48.770;9.176;2022-07-17T06:26:46;9.57;;;4.78;;
962;SDS011;469;48.770;9.176;2022-07-17T06:29:14;9.98;;;5.63;;
962;SDS011;469;48.770;9.176;2022-07-17T06:31:41;9.05;;;4.60;;
962;SDS011;469;48.770;9.176;2022-07-17T06:34:08;9.30;;;4.90;;
962;SDS011;469;48.770;9.176;2022-07-17T06:36:34;12.45;;;5.22;;
962;SDS011;469;48.770;9.176;2022-07-17T06:39:01;11.10;;;5.53;;
962;SDS011;469;48.770;9.176;2022-07-17T06:41:28;8.38;;;4.68;;
962;SDS011;469;48.770;9.176;2022-07-17T06:43:55;12.68;;;4.70;;
962;SDS011;469;48.770;9.176;2022-07-17T06:46:26;6.63;;;4.10;;
962;SDS011;469;48.770;9.176;2022-07-17T06:48:54;11.57;;;4.75;;
962;SDS011;469;48.770;9.176;2022-07-17T06:51:21;6.80;;;4.47;;
962;SDS011;469;48.770;9.176;2022-07-17T06:53:48;9.30;;;4.85;;
962;SDS011;469;48.770;9.176;2022-07-17T06:56:14;8.95;;;4.57;;
962;SDS011;469;48.770;9.176;2022-07-17T06:58:41;7.53;;;4.53;;
962;SDS011;469;48.770;9.176;2022-07-17T07:01:08;6.13;;;4.30;;
962;SDS011;469;48.770;9.176;2022-07-17T07:03:36;11.27;;;3.85;;
962;SDS011;469;48.770;9.176;2022-07-17T07:06:03;10.70;;;4.30;;
962;SDS011;469;48.770;9.176;2022-07-17T07:08:33;7.93;;;4.55;;
962;SDS011;469;48.770;9.176;2022-07-17T07:11:04;9.18;;;4.05;;
962;SDS011;469;48.770;9.176;2022-07-17T07:13:32;8.20;;;3.95;;
962;SDS011;469;48.770;9.176;2022-07-17T07:15:59;8.20;;;4.53;;
962;SDS011;469;48.770;9.176;2022-07-17T07:18:27;12.38;;;4.38;;
962;SDS011;469;48.770;9.176;2022-07-17T07:20:55;7.10;;;4.10;;
962;SDS011;469;48.770;9.176;2022-07-17T07:23:22;8.00;;;3.65;;
962;SDS011;469;48.770;9.176;2022-07-17T07:25:49;6.63;;;3.85;;
962;SDS011;469;48.770;9.176;2022-07-17T07:28:16;7.65;;;3.70;;
962;SDS011;469;48.770;9.176;2022-07-17T07:30:43;7.95;;;3.95;;
962;SDS011;469;48.770;9.176;2022-07-17T07:33:10;6.93;;;4.30;;
962;SDS011;469;48.770;9.176;2022-07-17T07:35:36;5.93;;;3.20;;
962;SDS011;469;48.770;9.176;2022-07-17T07:38:05;8.85;;;3.88;;
962;SDS011;469;48.770;9.176;2022-07-17T07:40:31;11.57;;;3.80;;
962;SDS011;469;48.770;9.176;2022-07-17T07:42:58;10.60;;;3.90;;
962;SDS011;469;48.770;9.176;2022-07-17T07:45:25;7.55;;;3.15;;
962;SDS011;469;48.770;9.176;2022-07-17T07:47:52;8.55;;;3.60;;
962;SDS011;469;48.770;9.176;2022-07-17T07:50:21;5.68;;;3.22;;
962;SDS011;469;48.770;9.176;2022-07-17T07:52:49;5.22;;;3.20;;
962;SDS011;469;48.770;9.176;2022-07-17T07:55:18;5.72;;;2.72;;
962;SDS011;469;48.770;9.176;2022-07-17T07:57:46;6.05;;;3.20;;
962;SDS011;469;48.770;9.176;2022-07-17T08:00:13;5.60;;;3.08;;
962;SDS011;469;48.770;9.176;2022-07-17T08:02:40;5.78;;;2.75;;
962;SDS011;469;48.770;9.176;2022-07-17T08:05:09;7.50;;;3.40;;
962;SDS011;469;48.770;9.176;2022-07-17T08:07:36;8.88;;;3.17;;
962;SDS011;469;48.770;9.176;2022-07-17T08:10:03;6.57;;;2.80;;
962;SDS011;469;48.770;9.176;2022-07-17T08:12:32;5.47;;;2.95;;
962;SDS011;469;48.770;9.176;2022-07-17T08:14:59;5.32;;;2.60;;
962;SDS011;469;48.770;9.176;2022-07-17T08:17:26;4.90;;;2.60;;
962;SDS011;469;48.770;9.176;2022-07-17T08:19:53;6.28;;;3.00;;
962;SDS011;469;48.770;9.176;2022-07-17T08:22:20;5.65;;;2.70;;
962;SDS011;469;48.770;9.176;2022-07-17T08:24:47;6.78;;;2.60;;
962;SDS011;469;48.770;9.176;2022-07-17T08:27:14;6.60;;;2.75;;
962;SDS011;469;48.770;9.176;2022-07-17T08:29:43;6.63;;;2.60;;
962;SDS011;469;48.770;9.176;2022-07-17T08:32:10;5.82;;;2.67;;
962;SDS011;469;48.770;9.176;2022-07-17T08:34:37;3.55;;;2.17;;
962;SDS011;469;48.770;9.176;2022-07-17T08:37:04;7.25;;;2.80;;
962;SDS011;469;48.770;9.176;2022-07-17T08:39:31;7.38;;;2.40;;
962;SDS011;469;48.770;9.176;2022-07-17T08:41:58;5.47;;;2.35;;
962;SDS011;469;48.770;9.176;2022-07-17T08:44:25;10.02;;;3.08;;
962;SDS011;469;48.770;9.176;2022-07-17T08:46:53;4.38;;;2.50;;
962;SDS011;469;48.770;9.176;2022-07-17T08:49:21;6.95;;;4.10;;
962;SDS011;469;48.770;9.176;2022-07-17T08:51:48;3.97;;;2.35;;
962;SDS011;469;48.770;9.176;2022-07-17T08:54:15;5.18;;;3.00;;
962;SDS011;469;48.770;9.176;2022-07-17T08:56:42;5.68;;;2.72;;
962;SDS011;469;48.770;9.176;2022-07-17T08:59:09;5.05;;;2.40;;
962;SDS011;469;48.770;9.176;2022-07-17T09:01:36;3.88;;;1.98;;
962;SDS011;469;48.770;9.176;2022-07-17T09:04:05;5.60;;;2.30;;
962;SDS011;469;48.770;9.176;2022-07-17T09:06:34;4.72;;;2.65;;
962;SDS011;469;48.770;9.176;2022-07-17T09:09:06;5.55;;;2.58;;
962;SDS011;469;48.770;9.176;2022-07-17T09:11:43;8.00;;;2.38;;
962;SDS011;469;48.770;9.176;2022-07-17T09:14:11;3.75;;;2.00;;
962;SDS011;469;48.770;9.176;2022-07-17T09:16:47;3.65;;;2.30;;
962;SDS011;469;48.770;9.176;2022-07-17T09:19:24;3.83;;;2.63;;
962;SDS011;469;48.770;9.176;2022-07-17T09:21:51;6.00;;;2.63;;
962;SDS011;469;48.770;9.176;2022-07-17T09:24:18;7.05;;;2.22;;
962;SDS011;469;48.770;9.176;2022-07-17T09:26:45;4.25;;;2.30;;
962;SDS011;469;48.770;9.176;2022-07-17T09:29:12;5.78;;;2.40;;
962;SDS011;469;48.770;9.176;2022-07-17T09:31:39;4.78;;;1.70;;
962;SDS011;469;48.770;9.176;2022-07-17T09:34:15;5.38;;;2.13;;
962;SDS011;469;48.770;9.176;2022-07-17T09:36:44;6.55;;;2.38;;
962;SDS011;469;48.770;9.176;2022-07-17T09:39:11;3.95;;;2.20;;
962;SDS011;469;48.770;9.176;2022-07-17T09:41:38;5.93;;;1.80;;
962;SDS011;469;48.770;9.176;2022-07-17T09:44:05;4.20;;;2.05;;
962;SDS011;469;48.770;9.176;2022-07-17T09:46:33;4.65;;;1.90;;
962;SDS011;469;48.770;9.176;2022-07-17T09:49:02;7.80;;;2.17;;
962;SDS011;469;48.770;9.176;2022-07-17T09:51:30;6.68;;;2.25;;
962;SDS011;469;48.770;9.176;2022-07-17T09:53:59;6.20;;;1.83;;
962;SDS011;469;48.770;9.176;2022-07-17T09:56:28;5.07;;;2.15;;
962;SDS011;469;48.770;9.176;2022-07-17T09:58:58;2.97;;;1.60;;
962;SDS011;469;48.770;9.176;2022-07-17T10:01:26;3.13;;;1.70;;
962;SDS011;469;48.770;9.176;2022-07-17T10:03:53;2.80;;;1.70;;
962;SDS011;469;48.770;9.176;2022-07-17T10:06:21;5.25;;;1.95;;
962;SDS011;469;48.770;9.176;2022-07-17T10:08:48;4.07;;;1.70;;
962;SDS011;469;48.770;9.176;2022-07-17T10:11:18;6.70;;;1.67;;
962;SDS011;469;48.770;9.176;2022-07-17T10:13:46;3.97;;;1.88;;
962;SDS011;469;48.770;9.176;2022-07-17T10:16:22;3.00;;;1.55;;
962;SDS011;469;48.770;9.176;2022-07-17T10:18:49;4.05;;;1.85;;
962;SDS011;469;48.770;9.176;2022-07-17T10:21:20;5.18;;;2.40;;
962;SDS011;469;48.770;9.176;2022-07-17T10:23:47;6.03;;;1.95;;
962;SDS011;469;48.770;9.176;2022-07-17T10:26:15;5.70;;;2.25;;
962;SDS011;469;48.770;9.176;2022-07-17T10:28:45;3.55;;;1.75;;
962;SDS011;469;48.770;9.176;2022-07-17T10:31:22;3.70;;;2.00;;
962;SDS011;469;48.770;9.176;2022-07-17T10:33:56;5.72;;;2.85;;
962;SDS011;469;48.770;9.176;2022-07-17T10:36:32;3.65;;;2.00;;
962;SDS011;469;48.770;9.176;2022-07-17T10:39:09;3.38;;;1.80;;
962;SDS011;469;48.770;9.176;2022-07-17T10:41:37;3.30;;;1.77;;
962;SDS011;469;48.770;9.176;2022-07-17T10:44:05;3.30;;;2.08;;
962;SDS011;469;48.770;9.176;2022-07-17T10:46:32;3.10;;;1.90;;
962;SDS011;469;48.770;9.176;2022-07-17T10:49:00;3.33;;;1.85;;
962;SDS011;469;48.770;9.176;2022-07-17T10:51:28;4.78;;;2.05;;
962;SDS011;469;48.770;9.176;2022-07-17T10:53:55;3.90;;;1.80;;
962;SDS011;469;48.770;9.176;2022-07-17T10:56:23;5.20;;;1.85;;
962;SDS011;469;48.770;9.176;2022-07-17T10:58:51;4.68;;;2.10;;
962;SDS011;469;48.770;9.176;2022-07-17T11:01:20;3.17;;;1.65;;
962;SDS011;469;48.770;9.176;2022-07-17T11:03:48;2.80;;;1.80;;
962;SDS011;469;48.770;9.176;2022-07-17T11:06:16;3.75;;;1.60;;
962;SDS011;469;48.770;9.176;2022-07-17T11:08:45;6.80;;;2.03;;
962;SDS011;469;48.770;9.176;2022-07-17T11:11:12;3.60;;;2.17;;
962;SDS011;469;48.770;9.176;2022-07-17T11:13:40;3.65;;;1.85;;
962;SDS011;469;48.770;9.176;2022-07-17T11:16:07;3.20;;;1.80;;
962;SDS011;469;48.770;9.176;2022-07-17T11:18:36;7.47;;;1.75;;
962;SDS011;469;48.770;9.176;2022-07-17T11:21:03;2.40;;;1.80;;
962;SDS011;469;48.770;9.176;2022-07-17T11:23:32;5.40;;;1.85;;
962;SDS011;469;48.770;9.176;2022-07-17T11:26:00;6.00;;;2.50;;
962;SDS011;469;48.770;9.176;2022-07-17T11:28:35;7.95;;;2.03;;
962;SDS011;469;48.770;9.176;2022-07-17T11:31:04;6.00;;;2.20;;
962;SDS011;469;48.770;9.176;2022-07-17T11:33:31;2.85;;;1.80;;
962;SDS011;469;48.770;9.176;2022-07-17T11:35:59;5.45;;;2.15;;
962;SDS011;469;48.770;9.176;2022-07-17T11:38:27;2.70;;;1.90;;
962;SDS011;469;48.770;9.176;2022-07-17T11:40:56;4.53;;;1.75;;
962;SDS011;469;48.770;9.176;2022-07-17T11:43:23;3.70;;;2.03;;
962;SDS011;469;48.770;9.176;2022-07-17T11:45:50;3.97;;;1.90;;
962;SDS011;469;48.770;9.176;2022-07-17T11:48:17;5.05;;;2.20;;
962;SDS011;469;48.770;9.176;2022-07-17T11:50:54;4.38;;;2.00;;
962;SDS011;469;48.770;9.176;2022-07-17T11:53:34;6.18;;;1.90;;
962;SDS011;469;48.770;9.176;2022-07-17T11:56:01;3.42;;;2.00;;
962;SDS011;469;48.770;9.176;2022-07-17T11:58:39;2.95;;;1.90;;
962;SDS011;469;48.770;9.176;2022-07-17T12:01:07;5.03;;;1.95;;
962;SDS011;469;48.770;9.176;2022-07-17T12:03:34;4.57;;;1.65;;
962;SDS011;469;48.770;9.176;2022-07-17T12:06:01;4.80;;;2.00;;
962;SDS011;469;48.770;9.176;2022-07-17T12:08:28;3.58;;;2.08;;
962;SDS011;469;48.770;9.176;2022-07-17T12:11:00;3.70;;;1.90;;
962;SDS011;469;48.770;9.176;2022-07-17T12:13:37;2.67;;;1.80;;
962;SDS011;469;48.770;9.176;2022-07-17T12:16:17;4.20;;;2.83;;
962;SDS011;469;48.770;9.176;2022-07-17T12:18:54;3.45;;;2.05;;
962;SDS011;469;48.770;9.176;2022-07-17T12:21:21;5.00;;;1.77;;
962;SDS011;469;48.770;9.176;2022-07-17T12:23:55;4.97;;;1.95;;
962;SDS011;469;48.770;9.176;2022-07-17T12:26:24;4.55;;;2.00;;
962;SDS011;469;48.770;9.176;2022-07-17T12:28:51;3.47;;;1.95;;
962;SDS011;469;48.770;9.176;2022-07-17T12:31:18;3.38;;;1.80;;
962;SDS011;469;48.770;9.176;2022-07-17T12:33:46;4.60;;;1.73;;
962;SDS011;469;48.770;9.176;2022-07-17T12:36:14;4.97;;;2.50;;
962;SDS011;469;48.770;9.176;2022-07-17T12:38:41;3.33;;;1.80;;
962;SDS011;469;48.770;9.176;2022-07-17T12:41:08;2.97;;;1.70;;
962;SDS011;469;48.770;9.176;2022-07-17T12:43:36;3.03;;;2.00;;
962;SDS011;469;48.770;9.176;2022-07-17T12:46:04;4.95;;;3.08;;
962;SDS011;469;48.770;9.176;2022-07-17T12:48:31;8.55;;;5.28;;
962;SDS011;469;48.770;9.176;2022-07-17T12:50:58;9.27;;;4.80;;
962;SDS011;469;48.770;9.176;2022-07-17T12:53:27;11.10;;;5.38;;
962;SDS011;469;48.770;9.176;2022-07-17T12:55:55;3.15;;;2.20;;
962;SDS011;469;48.770;9.176;2022-07-17T12:58:22;4.40;;;1.88;;
962;SDS011;469;48.770;9.176;2022-07-17T13:00:51;5.80;;;2.13;;
962;SDS011;469;48.770;9.176;2022-07-17T13:03:18;3.55;;;2.10;;
962;SDS011;469;48.770;9.176;2022-07-17T13:05:45;3.10;;;1.60;;
962;SDS011;469;48.770;9.176;2022-07-17T13:08:12;4.78;;;2.13;;
962;SDS011;469;48.770;9.176;2022-07-17T13:10:40;3.30;;;1.60;;
962;SDS011;469;48.770;9.176;2022-07-17T13:13:07;2.57;;;2.00;;
962;SDS011;469;48.770;9.176;2022-07-17T13:15:34;4.20;;;1.90;;
962;SDS011;469;48.770;9.176;2022-07-17T13:18:02;3.10;;;1.40;;
962;SDS011;469;48.770;9.176;2022-07-17T13:20:29;2.90;;;1.80;;
962;SDS011;469;48.770;9.176;2022-07-17T13:22:56;3.13;;;1.87;;
962;SDS011;469;48.770;9.176;2022-07-17T13:25:24;3.67;;;1.70;;
962;SDS011;469;48.770;9.176;2022-07-17T13:27:51;3.33;;;1.87;;
962;SDS011;469;48.770;9.176;2022-07-17T13:30:18;2.63;;;1.63;;
962;SDS011;469;48.770;9.176;2022-07-17T13:32:45;7.38;;;1.80;;
962;SDS011;469;48.770;9.176;2022-07-17T13:35:13;5.07;;;1.90;;
962;SDS011;469;48.770;9.176;2022-07-17T13:37:42;3.08;;;1.70;;
962;SDS011;469;48.770;9.176;2022-07-17T13:40:10;2.33;;;1.60;;
962;SDS011;469;48.770;9.176;2022-07-17T13:42:37;2.80;;;1.60;;
962;SDS011;469;48.770;9.176;2022-07-17T13:45:05;4.15;;;1.80;;
962;SDS011;469;48.770;9.176;2022-07-17T13:47:32;2.97;;;1.60;;
962;SDS011;469;48.770;9.176;2022-07-17T13:49:59;2.40;;;1.43;;
962;SDS011;469;48.770;9.176;2022-07-17T13:52:27;5.93;;;1.50;;
962;SDS011;469;48.770;9.176;2022-07-17T13:54:55;2.67;;;1.70;;
962;SDS011;469;48.770;9.176;2022-07-17T13:57:22;8.03;;;2.00;;
962;SDS011;469;48.770;9.176;2022-07-17T13:59:52;2.43;;;1.30;;
962;SDS011;469;48.770;9.176;2022-07-17T14:02:20;3.50;;;1.50;;
962;SDS011;469;48.770;9.176;2022-07-17T14:04:49;3.10;;;1.57;;
962;SDS011;469;48.770;9.176;2022-07-17T14:07:17;4.30;;;1.63;;
962;SDS011;469;48.770;9.176;2022-07-17T14:09:46;5.70;;;1.70;;
962;SDS011;469;48.770;9.176;2022-07-17T14:12:13;3.30;;;1.50;;
962;SDS011;469;48.770;9.176;2022-07-17T14:14:40;2.93;;;1.63;;
962;SDS011;469;48.770;9.176;2022-07-17T14:17:07;7.80;;;1.40;;
962;SDS011;469;48.770;9.176;2022-07-17T14:19:34;4.40;;;2.03;;
962;SDS011;469;48.770;9.176;2022-07-17T14:22:02;3.30;;;1.43;;
962;SDS011;469;48.770;9.176;2022-07-17T14:24:29;3.27;;;1.50;;
962;SDS011;469;48.770;9.176;2022-07-17T14:26:57;2.53;;;1.33;;
962;SDS011;469;48.770;9.176;2022-07-17T14:29:24;4.50;;;1.33;;
962;SDS011;469;48.770;9.176;2022-07-17T14:31:51;4.73;;;1.40;;
962;SDS011;469;48.770;9.176;2022-07-17T14:34:18;2.40;;;1.33;;
962;SDS011;469;48.770;9.176;2022-07-17T14:36:46;1.97;;;1.30;;
962;SDS011;469;48.770;9.176;2022-07-17T14:39:14;2.50;;;1.40;;
962;SDS011;469;48.770;9.176;2022-07-17T14:41:41;3.53;;;1.50;;
962;SDS011;469;48.770;9.176;2022-07-17T14:44:11;3.20;;;2.30;;
962;SDS011;469;48.770;9.176;2022-07-17T14:46:38;2.10;;;1.40;;
962;SDS011;469;48.770;9.176;2022-07-17T14:49:05;2.00;;;1.30;;
962;SDS011;469;48.770;9.176;2022-07-17T14:51:32;2.87;;;1.90;;
962;SDS011;469;48.770;9.176;2022-07-17T14:53:59;3.13;;;1.50;;
962;SDS011;469;48.770;9.176;2022-07-17T14:56:26;2.30;;;1.53;;
962;SDS011;469;48.770;9.176;2022-07-17T14:58:54;3.43;;;1.50;;
962;SDS011;469;48.770;9.176;2022-07-17T15:01:22;1.70;;;1.30;;
962;SDS011;469;48.770;9.176;2022-07-17T15:03:49;3.20;;;1.73;;
962;SDS011;469;48.770;9.176;2022-07-17T15:06:16;2.10;;;1.40;;
962;SDS011;469;48.770;9.176;2022-07-17T15:08:43;2.40;;;1.60;;
962;SDS011;469;48.770;9.176;2022-07-17T15:11:11;3.80;;;1.23;;
962;SDS011;469;48.770;9.176;2022-07-17T15:13:38;3.43;;;1.70;;
962;SDS011;469;48.770;9.176;2022-07-17T15:16:06;2.17;;;1.60;;
962;SDS011;469;48.770;9.176;2022-07-17T15:18:34;2.03;;;1.30;;
962;SDS011;469;48.770;9.176;2022-07-17T15:21:01;5.83;;;3.40;;
962;SDS011;469;48.770;9.176;2022-07-17T15:23:28;4.77;;;2.80;;
962;SDS011;469;48.770;9.176;2022-07-17T15:25:55;3.20;;;1.70;;
962;SDS011;469;48.770;9.176;2022-07-17T15:28:22;6.53;;;2.70;;
962;SDS011;469;48.770;9.176;2022-07-17T15:30:50;4.73;;;2.00;;
962;SDS011;469;48.770;9.176;2022-07-17T15:33:17;4.30;;;1.63;;
962;SDS011;469;48.770;9.176;2022-07-17T15:35:46;2.70;;;1.57;;
962;SDS011;469;48.770;9.176;2022-07-17T15:38:13;4.93;;;1.50;;
962;SDS011;469;48.770;9.176;2022-07-17T15:40:40;2.60;;;1.27;;
962;SDS011;469;48.770;9.176;2022-07-17T15:43:07;4.20;;;1.93;;
962;SDS011;469;48.770;9.176;2022-07-17T15:45:34;2.47;;;1.80;;
962;SDS011;469;48.770;9.176;2022-07-17T15:48:01;2.40;;;1.80;;